West Plains, MO (65775)

2:08 AM CDT on August 05, 2015 (GMT -0500)
Cedar Lane | | Change Station
CLOSE
Current Station
Personal Weather Station
Location: West Plains, MO
Elevation: 1068 ft
Nearby Weather Stations

Elev 1068 ft 36.75 °N, 91.90 °W | Updated 3 seconds ago

Overcast
Overcast
69.5 °F
Feels Like 69.5 °F
N
0.0
Wind Variable Wind from SSW
Gusts 0.0 mph

Today
High -- | Low -- °F
--% Chance of Precip.
Yesterday
High -- | Low -- °F
Precip. -- in
6:16 AM 8:10 PM
Waning Gibbous, 70% visible
Pressure 29.99 in
Visibility 10.0 miles
Clouds Overcast 8500 ft
Dew Point 62 °F
Humidity 77%
Rainfall 0.00 in
Snow Depth Not available.
UV 0 out of 12
Pollen 6.50 out of 12
Air Quality Not available.
Flu Activity Not available.
METAR KUNO 050653Z AUTO 14005KT 10SM OVC085 23/17 A3003 RMK AO2 LTG DSNT W RAE0556 SLP153 P0000 T02280167

More Conditions Fewer Conditions

Pressure 29.99 in
Visibility 10.0 miles
Clouds Overcast 8500 ft
Dew Point 62 °F
Humidity 77%
Rainfall 0.00 in
Snow Depth Not available.
UV 0 out of 12
Pollen 6.50 out of 12
Air Quality Not available.
Flu Activity Not available.
METAR KUNO 050653Z AUTO 14005KT 10SM OVC085 23/17 A3003 RMK AO2 LTG DSNT W RAE0556 SLP153 P0000 T02280167

More Conditions Fewer Conditions

10-Day Weather Forecast

×

Almanac

Astronomy

Aug. 05, 2015 Rise Set
Actual Time
Civil Twilight
Nautical Twilight
Astronomical Twilight
Moon
Length of Visible Light
Length of Day
Tomorrow will be .
, % of the Moon is Illuminated

Today's Extremes

State Highs State Lows

Community

WunderPhotos

Upload Photos

1,844,105 photos uploaded!

WunderBlogs® & News

Nearby

Air Quality

  Air Quality AQ Index Pollutant
Not available.

Snow Depth

Station Depth Elevation

Earthquake Activity

City Distance Mag. Time & Date
Minimum magnitude displayed is 2.5.

Coastal Water Temperatures

Place Temperature

Stations

Nearby Weather Stations

Station Location Temp. Windchill Dew Point Humidity Wind Precip. Elev Updated Type